OITK  Khoy Airport

Add Bookmark

Khoy, Iran

Status IATA
Operational KHY
Latitude Longitude
38° 25' 39" N 44° 58' 24" E
38.427502 44.973598
Local (DST + 5) UTC (GMT + 4)
Jul 30, 2014 05:37 Jul 30, 2014 13:07
Sunrise-Sunset Local UTC
Begin Civil Twilight 05:59 01:29
Sunrise 06:29 01:59
Sunset 08:43 16:13
End Civil Twilight 09:13 16:43

Current Weather

METAR Observed VFR
OITK 300900Z 35006KT 9999 FEW030 29/06 Q1012 Wed, Jul 30, 2014 @ 09:00 UTC
(4 Hours, 7 Minutes ago)
Visual Flight Rules

Decoded METAR

Wind Visibility Clouds Conditions
350° at 6 knots (11 kph) 10 km or more
  • Few at 3,000' AGL
  • No significant weather
Temperatures Readings Precipitation
Current Temp 29°C (84°F)
Dewpoint 6°C (43°F)
Humidity 23%
Altimeter 29.88"Hg
Sea Level Pressure 1012mb
Field Elevation 3631.89'
None Recorded

Additional weather within a 92.6km radius of OITK

Map ICAO Location
OITR 84.8km S (174°)

24 Hour Weather History

Loading
-

24 Hour Weather Graphs

Loading
-

CheckWX.com is intended as a tool to help pilots better visualize weather data. It is not intended as a substitute for an official weather briefing obtained from a Flight Service Station. CheckWX.com does not meet the FAA requirements for an official pre-flight weather briefing. Therefore, it's important that pilots still call and obtain an official FSS pre-flight weather briefing.